sensor_id;sensor_type;location;lat;lon;timestamp;pressure;altitude;pressure_sealevel;temperature;humidity
17607;BME280;69222;52.242;20.980;2023-09-07T00:01:07;101261.91;;;20.10;59.84
17607;BME280;69222;52.242;20.980;2023-09-07T00:03:35;101261.91;;;20.10;59.83
17607;BME280;69222;52.242;20.980;2023-09-07T00:06:09;101262.81;;;20.09;59.87
17607;BME280;69222;52.242;20.980;2023-09-07T00:08:37;101266.34;;;20.08;60.11
17607;BME280;69222;52.242;20.980;2023-09-07T00:11:06;101266.44;;;20.05;60.33
17607;BME280;69222;52.242;20.980;2023-09-07T00:13:36;101261.19;;;20.05;60.20
17607;BME280;69222;52.242;20.980;2023-09-07T00:16:04;101265.72;;;20.00;60.21
17607;BME280;69222;52.242;20.980;2023-09-07T00:18:34;101259.66;;;19.98;60.44
17607;BME280;69222;52.242;20.980;2023-09-07T00:21:02;101268.44;;;19.97;60.71
17607;BME280;69222;52.242;20.980;2023-09-07T00:23:31;101268.44;;;19.97;60.69
17607;BME280;69222;52.242;20.980;2023-09-07T00:25:59;101266.81;;;19.93;60.81
17607;BME280;69222;52.242;20.980;2023-09-07T00:28:27;101267.66;;;19.93;60.75
17607;BME280;69222;52.242;20.980;2023-09-07T00:30:55;101266.00;;;19.91;60.88
17607;BME280;69222;52.242;20.980;2023-09-07T00:33:23;101266.00;;;19.91;61.02
17607;BME280;69222;52.242;20.980;2023-09-07T00:35:51;101271.44;;;19.85;60.97
17607;BME280;69222;52.242;20.980;2023-09-07T00:38:19;101272.41;;;19.81;61.22
17607;BME280;69222;52.242;20.980;2023-09-07T00:40:48;101262.06;;;19.77;61.03
17607;BME280;69222;52.242;20.980;2023-09-07T00:43:16;101260.38;;;19.75;61.20
17607;BME280;69222;52.242;20.980;2023-09-07T00:45:44;101258.63;;;19.75;61.08
17607;BME280;69222;52.242;20.980;2023-09-07T00:48:13;101263.84;;;19.75;61.01
17607;BME280;69222;52.242;20.980;2023-09-07T00:50:43;101266.56;;;19.72;61.08
17607;BME280;69222;52.242;20.980;2023-09-07T00:53:11;101266.63;;;19.69;61.40
17607;BME280;69222;52.242;20.980;2023-09-07T00:55:39;101272.78;;;19.68;61.35
17607;BME280;69222;52.242;20.980;2023-09-07T00:58:08;101273.63;;;19.69;61.44
17607;BME280;69222;52.242;20.980;2023-09-07T01:00:39;101267.50;;;19.70;61.91
17607;BME280;69222;52.242;20.980;2023-09-07T01:03:07;101265.75;;;19.70;62.12
17607;BME280;69222;52.242;20.980;2023-09-07T01:05:42;101264.03;;;19.69;61.68
17607;BME280;69222;52.242;20.980;2023-09-07T01:08:15;101262.31;;;19.68;61.92
17607;BME280;69222;52.242;20.980;2023-09-07T01:10:44;101258.78;;;19.69;62.27
17607;BME280;69222;52.242;20.980;2023-09-07T01:13:14;101262.22;;;19.71;62.31
17607;BME280;69222;52.242;20.980;2023-09-07T01:15:42;101262.16;;;19.74;61.78
17607;BME280;69222;52.242;20.980;2023-09-07T01:18:10;101267.28;;;19.77;61.43
17607;BME280;69222;52.242;20.980;2023-09-07T01:21:00;101267.28;;;19.77;61.64
17607;BME280;69222;52.242;20.980;2023-09-07T01:23:31;101271.00;;;19.70;61.67
17607;BME280;69222;52.242;20.980;2023-09-07T01:25:59;101269.47;;;19.63;61.88
17607;BME280;69222;52.242;20.980;2023-09-07T01:28:27;101277.50;;;19.55;62.46
17607;BME280;69222;52.242;20.980;2023-09-07T01:30:56;101275.06;;;19.49;62.64
17607;BME280;69222;52.242;20.980;2023-09-07T01:33:24;101278.69;;;19.44;62.67
17607;BME280;69222;52.242;20.980;2023-09-07T01:35:52;101289.25;;;19.41;63.07
17607;BME280;69222;52.242;20.980;2023-09-07T01:38:20;101285.81;;;19.39;62.95
17607;BME280;69222;52.242;20.980;2023-09-07T01:40:49;101281.50;;;19.36;62.80
17607;BME280;69222;52.242;20.980;2023-09-07T01:43:17;101277.25;;;19.34;63.06
17607;BME280;69222;52.242;20.980;2023-09-07T01:45:45;101285.94;;;19.34;62.93
17607;BME280;69222;52.242;20.980;2023-09-07T01:48:14;101283.50;;;19.28;62.86
17607;BME280;69222;52.242;20.980;2023-09-07T01:50:42;101287.03;;;19.25;63.24
17607;BME280;69222;52.242;20.980;2023-09-07T01:53:10;101285.38;;;19.23;63.36
17607;BME280;69222;52.242;20.980;2023-09-07T01:55:38;101282.84;;;19.20;63.51
17607;BME280;69222;52.242;20.980;2023-09-07T01:58:07;101279.53;;;19.15;63.71
17607;BME280;69222;52.242;20.980;2023-09-07T02:00:38;101274.31;;;19.13;63.96
17607;BME280;69222;52.242;20.980;2023-09-07T02:03:07;101281.25;;;19.14;63.68
17607;BME280;69222;52.242;20.980;2023-09-07T02:05:35;101284.81;;;19.12;63.84
17607;BME280;69222;52.242;20.980;2023-09-07T02:08:03;101284.84;;;19.10;63.89
17607;BME280;69222;52.242;20.980;2023-09-07T02:10:32;101279.69;;;19.07;63.87
17607;BME280;69222;52.242;20.980;2023-09-07T02:13:00;101280.66;;;19.04;64.08
17607;BME280;69222;52.242;20.980;2023-09-07T02:15:30;101288.53;;;19.03;64.03
17607;BME280;69222;52.242;20.980;2023-09-07T02:17:57;101276.38;;;19.02;64.19
17607;BME280;69222;52.242;20.980;2023-09-07T02:20:25;101284.22;;;19.02;64.23
17607;BME280;69222;52.242;20.980;2023-09-07T02:22:53;101274.66;;;19.01;64.19
17607;BME280;69222;52.242;20.980;2023-09-07T02:25:21;101286.81;;;19.02;64.44
17607;BME280;69222;52.242;20.980;2023-09-07T02:27:49;101280.75;;;19.01;64.41
17607;BME280;69222;52.242;20.980;2023-09-07T02:30:17;101279.03;;;19.00;64.51
17607;BME280;69222;52.242;20.980;2023-09-07T02:32:47;101279.13;;;18.97;64.74
17607;BME280;69222;52.242;20.980;2023-09-07T02:35:14;101286.09;;;18.97;64.64
17607;BME280;69222;52.242;20.980;2023-09-07T02:37:42;101286.97;;;18.96;64.57
17607;BME280;69222;52.242;20.980;2023-09-07T02:40:11;101288.84;;;18.91;64.71
17607;BME280;69222;52.242;20.980;2023-09-07T02:42:39;101284.56;;;18.88;64.94
17607;BME280;69222;52.242;20.980;2023-09-07T02:45:09;101300.34;;;18.83;65.11
17607;BME280;69222;52.242;20.980;2023-09-07T02:47:38;101292.53;;;18.83;64.96
17607;BME280;69222;52.242;20.980;2023-09-07T02:50:08;101293.44;;;18.81;65.11
17607;BME280;69222;52.242;20.980;2023-09-07T02:52:36;101284.81;;;18.79;65.03
17607;BME280;69222;52.242;20.980;2023-09-07T02:55:05;101297.88;;;18.79;65.09
17607;BME280;69222;52.242;20.980;2023-09-07T02:57:34;101289.19;;;18.78;65.11
17607;BME280;69222;52.242;20.980;2023-09-07T03:00:03;101291.75;;;18.80;64.90
17607;BME280;69222;52.242;20.980;2023-09-07T03:02:36;101297.91;;;18.77;65.04
17607;BME280;69222;52.242;20.980;2023-09-07T03:05:05;101295.34;;;18.76;64.98
17607;BME280;69222;52.242;20.980;2023-09-07T03:07:34;101299.72;;;18.74;65.03
17607;BME280;69222;52.242;20.980;2023-09-07T03:10:03;101299.81;;;18.71;65.34
17607;BME280;69222;52.242;20.980;2023-09-07T03:12:31;101296.34;;;18.69;65.30
17607;BME280;69222;52.242;20.980;2023-09-07T03:14:58;101302.50;;;18.66;65.34
17607;BME280;69222;52.242;20.980;2023-09-07T03:17:30;101306.91;;;18.64;65.32
17607;BME280;69222;52.242;20.980;2023-09-07T03:19:58;101306.13;;;18.61;65.43
17607;BME280;69222;52.242;20.980;2023-09-07T03:22:26;101305.41;;;18.54;65.47
17607;BME280;69222;52.242;20.980;2023-09-07T03:24:57;101301.91;;;18.55;65.57
17607;BME280;69222;52.242;20.980;2023-09-07T03:27:25;101309.78;;;18.53;65.60
17607;BME280;69222;52.242;20.980;2023-09-07T03:29:53;101308.09;;;18.52;65.70
17607;BME280;69222;52.242;20.980;2023-09-07T03:32:21;101306.41;;;18.50;65.97
17607;BME280;69222;52.242;20.980;2023-09-07T03:34:49;101308.94;;;18.53;66.41
17607;BME280;69222;52.242;20.980;2023-09-07T03:37:17;101303.72;;;18.53;65.87
17607;BME280;69222;52.242;20.980;2023-09-07T03:39:45;101306.25;;;18.56;65.86
17607;BME280;69222;52.242;20.980;2023-09-07T03:42:14;101307.97;;;18.55;65.84
17607;BME280;69222;52.242;20.980;2023-09-07T03:44:42;101295.91;;;18.51;65.89
17607;BME280;69222;52.242;20.980;2023-09-07T03:47:13;101301.16;;;18.50;65.97
17607;BME280;69222;52.242;20.980;2023-09-07T03:49:42;101315.06;;;18.50;65.96
17607;BME280;69222;52.242;20.980;2023-09-07T03:52:10;101304.69;;;18.47;66.08
17607;BME280;69222;52.242;20.980;2023-09-07T03:54:39;101311.69;;;18.47;66.16
17607;BME280;69222;52.242;20.980;2023-09-07T03:57:07;101319.56;;;18.44;66.25
17607;BME280;69222;52.242;20.980;2023-09-07T03:59:36;101309.19;;;18.42;66.29
17607;BME280;69222;52.242;20.980;2023-09-07T04:02:04;101312.72;;;18.40;66.51
17607;BME280;69222;52.242;20.980;2023-09-07T04:04:32;101311.00;;;18.39;66.47
17607;BME280;69222;52.242;20.980;2023-09-07T04:07:00;101314.53;;;18.38;66.42
17607;BME280;69222;52.242;20.980;2023-09-07T04:09:28;101312.78;;;18.37;66.34
17607;BME280;69222;52.242;20.980;2023-09-07T04:11:56;101317.19;;;18.34;66.52
17607;BME280;69222;52.242;20.980;2023-09-07T04:14:24;101308.59;;;18.29;66.59
17607;BME280;69222;52.242;20.980;2023-09-07T04:16:53;101314.59;;;18.34;66.57
17607;BME280;69222;52.242;20.980;2023-09-07T04:19:21;101314.59;;;18.34;66.69
17607;BME280;69222;52.242;20.980;2023-09-07T04:21:49;101318.00;;;18.37;66.75
17607;BME280;69222;52.242;20.980;2023-09-07T04:24:18;101320.59;;;18.38;67.05
17607;BME280;69222;52.242;20.980;2023-09-07T04:26:47;101319.66;;;18.41;66.95
17607;BME280;69222;52.242;20.980;2023-09-07T04:29:15;101316.16;;;18.42;66.75
17607;BME280;69222;52.242;20.980;2023-09-07T04:31:43;101310.97;;;18.40;67.23
17607;BME280;69222;52.242;20.980;2023-09-07T04:34:13;101313.56;;;18.40;67.69
17607;BME280;69222;52.242;20.980;2023-09-07T04:36:41;101317.94;;;18.40;67.79
17607;BME280;69222;52.242;20.980;2023-09-07T04:39:09;101315.31;;;18.41;67.67
17607;BME280;69222;52.242;20.980;2023-09-07T04:41:37;101312.72;;;18.40;67.97
17607;BME280;69222;52.242;20.980;2023-09-07T04:44:05;101316.22;;;18.39;68.05
17607;BME280;69222;52.242;20.980;2023-09-07T04:46:33;101318.78;;;18.40;68.40
17607;BME280;69222;52.242;20.980;2023-09-07T04:49:00;101327.38;;;18.45;68.14
17607;BME280;69222;52.242;20.980;2023-09-07T04:51:30;101324.66;;;18.50;68.41
17607;BME280;69222;52.242;20.980;2023-09-07T04:53:58;101334.88;;;18.59;68.36
17607;BME280;69222;52.242;20.980;2023-09-07T04:56:26;101332.06;;;18.68;67.76
17607;BME280;69222;52.242;20.980;2023-09-07T04:58:58;101327.63;;;18.70;67.55
17607;BME280;69222;52.242;20.980;2023-09-07T05:01:26;101336.34;;;18.72;67.40
17607;BME280;69222;52.242;20.980;2023-09-07T05:03:54;101341.47;;;18.75;67.51
17607;BME280;69222;52.242;20.980;2023-09-07T05:06:22;101338.81;;;18.77;67.65
17607;BME280;69222;52.242;20.980;2023-09-07T05:08:51;101339.53;;;18.83;67.30
17607;BME280;69222;52.242;20.980;2023-09-07T05:11:19;101349.91;;;18.87;67.26
17607;BME280;69222;52.242;20.980;2023-09-07T05:13:47;101352.53;;;18.87;66.96
17607;BME280;69222;52.242;20.980;2023-09-07T05:16:15;101353.50;;;18.82;67.07
17607;BME280;69222;52.242;20.980;2023-09-07T05:18:43;101351.03;;;18.76;67.50
17607;BME280;69222;52.242;20.980;2023-09-07T05:21:12;101357.16;;;18.75;67.55
17607;BME280;69222;52.242;20.980;2023-09-07T05:23:40;101357.94;;;18.79;67.45
17607;BME280;69222;52.242;20.980;2023-09-07T05:26:10;101358.72;;;18.82;67.25
17607;BME280;69222;52.242;20.980;2023-09-07T05:28:40;101356.09;;;18.82;67.21
17607;BME280;69222;52.242;20.980;2023-09-07T05:31:08;101357.75;;;18.85;67.29
17607;BME280;69222;52.242;20.980;2023-09-07T05:33:36;101356.03;;;18.86;66.77
17607;BME280;69222;52.242;20.980;2023-09-07T05:36:05;101361.31;;;18.82;67.08
17607;BME280;69222;52.242;20.980;2023-09-07T05:38:33;101355.34;;;18.77;66.76
17607;BME280;69222;52.242;20.980;2023-09-07T05:41:01;101365.09;;;18.69;67.07
17607;BME280;69222;52.242;20.980;2023-09-07T05:43:30;101362.53;;;18.66;67.24
17607;BME280;69222;52.242;20.980;2023-09-07T05:45:58;101366.13;;;18.62;67.21
17607;BME280;69222;52.242;20.980;2023-09-07T05:48:26;101364.41;;;18.61;67.38
17607;BME280;69222;52.242;20.980;2023-09-07T05:50:55;101361.75;;;18.63;67.22
17607;BME280;69222;52.242;20.980;2023-09-07T05:53:23;101364.34;;;18.64;67.25
17607;BME280;69222;52.242;20.980;2023-09-07T05:55:52;101371.22;;;18.68;67.21
17607;BME280;69222;52.242;20.980;2023-09-07T05:58:20;101377.25;;;18.72;67.06
17607;BME280;69222;52.242;20.980;2023-09-07T06:00:50;101378.03;;;18.75;67.01
17607;BME280;69222;52.242;20.980;2023-09-07T06:03:18;101383.13;;;18.81;66.78
17607;BME280;69222;52.242;20.980;2023-09-07T06:05:46;101382.09;;;18.87;66.28
17607;BME280;69222;52.242;20.980;2023-09-07T06:08:14;101378.50;;;18.91;66.30
17607;BME280;69222;52.242;20.980;2023-09-07T06:10:42;101385.34;;;18.97;66.16
17607;BME280;69222;52.242;20.980;2023-09-07T06:13:10;101386.94;;;19.02;65.87
17607;BME280;69222;52.242;20.980;2023-09-07T06:15:38;101386.75;;;19.10;65.71
17607;BME280;69222;52.242;20.980;2023-09-07T06:18:07;101389.78;;;19.27;65.53
17607;BME280;69222;52.242;20.980;2023-09-07T06:20:35;101386.00;;;20.31;65.16
17607;BME280;69222;52.242;20.980;2023-09-07T06:23:03;101381.19;;;21.77;59.66
17607;BME280;69222;52.242;20.980;2023-09-07T06:25:31;101372.84;;;23.00;54.65
17607;BME280;69222;52.242;20.980;2023-09-07T06:27:59;101369.63;;;24.13;50.71
17607;BME280;69222;52.242;20.980;2023-09-07T06:30:27;101371.50;;;25.01;47.79
17607;BME280;69222;52.242;20.980;2023-09-07T06:32:55;101378.69;;;25.49;45.71
17607;BME280;69222;52.242;20.980;2023-09-07T06:35:25;101383.41;;;25.93;44.42
17607;BME280;69222;52.242;20.980;2023-09-07T06:37:53;101376.94;;;26.62;43.93
17607;BME280;69222;52.242;20.980;2023-09-07T06:40:22;101366.09;;;27.56;41.74
17607;BME280;69222;52.242;20.980;2023-09-07T06:42:52;101367.16;;;28.37;39.83
17607;BME280;69222;52.242;20.980;2023-09-07T06:45:21;101372.16;;;28.82;39.09
17607;BME280;69222;52.242;20.980;2023-09-07T06:47:50;101372.59;;;28.76;38.18
17607;BME280;69222;52.242;20.980;2023-09-07T06:50:19;101370.41;;;28.68;38.24
17607;BME280;69222;52.242;20.980;2023-09-07T06:52:49;101368.84;;;28.65;38.19
17607;BME280;69222;52.242;20.980;2023-09-07T06:55:17;101370.66;;;28.65;38.49
17607;BME280;69222;52.242;20.980;2023-09-07T06:57:46;101376.22;;;28.87;37.81
17607;BME280;69222;52.242;20.980;2023-09-07T07:00:15;101375.31;;;29.27;37.23
17607;BME280;69222;52.242;20.980;2023-09-07T07:02:43;101370.66;;;29.69;36.06
17607;BME280;69222;52.242;20.980;2023-09-07T07:05:11;101373.25;;;30.55;34.96
17607;BME280;69222;52.242;20.980;2023-09-07T07:07:39;101373.78;;;31.64;32.69
17607;BME280;69222;52.242;20.980;2023-09-07T07:10:09;101371.16;;;32.62;30.95
17607;BME280;69222;52.242;20.980;2023-09-07T07:12:39;101374.41;;;33.19;29.69
17607;BME280;69222;52.242;20.980;2023-09-07T07:15:07;101370.81;;;34.01;28.85
17607;BME280;69222;52.242;20.980;2023-09-07T07:17:35;101380.03;;;34.76;26.92
17607;BME280;69222;52.242;20.980;2023-09-07T07:20:04;101381.28;;;35.01;26.23
17607;BME280;69222;52.242;20.980;2023-09-07T07:22:33;101386.59;;;35.30;26.40
17607;BME280;69222;52.242;20.980;2023-09-07T07:25:02;101382.53;;;35.63;25.95
17607;BME280;69222;52.242;20.980;2023-09-07T07:27:33;101383.09;;;35.20;25.64
17607;BME280;69222;52.242;20.980;2023-09-07T07:30:01;101387.91;;;33.79;27.56
17607;BME280;69222;52.242;20.980;2023-09-07T07:32:30;101386.63;;;32.47;29.71
17607;BME280;69222;52.242;20.980;2023-09-07T07:34:58;101391.69;;;31.62;31.25
17607;BME280;69222;52.242;20.980;2023-09-07T07:37:26;101387.50;;;31.13;32.08
17607;BME280;69222;52.242;20.980;2023-09-07T07:39:54;101394.59;;;30.90;33.23
17607;BME280;69222;52.242;20.980;2023-09-07T07:42:22;101389.03;;;30.93;33.74
17607;BME280;69222;52.242;20.980;2023-09-07T07:44:51;101398.00;;;31.50;32.68
17607;BME280;69222;52.242;20.980;2023-09-07T07:47:19;101398.81;;;32.40;31.51
17607;BME280;69222;52.242;20.980;2023-09-07T07:49:48;101398.94;;;32.92;30.61
17607;BME280;69222;52.242;20.980;2023-09-07T07:52:16;101403.44;;;33.12;29.70
17607;BME280;69222;52.242;20.980;2023-09-07T07:54:44;101398.72;;;32.84;29.64
17607;BME280;69222;52.242;20.980;2023-09-07T07:57:11;101402.56;;;32.27;31.02
17607;BME280;69222;52.242;20.980;2023-09-07T07:59:39;101411.19;;;31.74;31.58
17607;BME280;69222;52.242;20.980;2023-09-07T08:02:09;101409.59;;;32.28;32.10
17607;BME280;69222;52.242;20.980;2023-09-07T08:04:37;101404.75;;;33.18;30.28
17607;BME280;69222;52.242;20.980;2023-09-07T08:07:05;101400.16;;;34.22;28.25
17607;BME280;69222;52.242;20.980;2023-09-07T08:09:35;101408.09;;;34.91;27.53
17607;BME280;69222;52.242;20.980;2023-09-07T08:12:04;101406.00;;;35.79;26.56
17607;BME280;69222;52.242;20.980;2023-09-07T08:14:33;101399.78;;;36.87;25.29
17607;BME280;69222;52.242;20.980;2023-09-07T08:17:01;101400.78;;;37.99;23.57
17607;BME280;69222;52.242;20.980;2023-09-07T08:19:29;101400.56;;;38.92;22.55
17607;BME280;69222;52.242;20.980;2023-09-07T08:21:58;101398.03;;;39.62;21.55
17607;BME280;69222;52.242;20.980;2023-09-07T08:24:26;101395.63;;;40.15;20.71
17607;BME280;69222;52.242;20.980;2023-09-07T08:26:53;101398.94;;;40.48;20.35
17607;BME280;69222;52.242;20.980;2023-09-07T08:29:23;101399.84;;;40.63;20.32
17607;BME280;69222;52.242;20.980;2023-09-07T08:31:53;101401.94;;;40.91;19.98
17607;BME280;69222;52.242;20.980;2023-09-07T08:34:24;101404.44;;;41.15;19.52
17607;BME280;69222;52.242;20.980;2023-09-07T08:36:54;101399.69;;;41.02;20.08
17607;BME280;69222;52.242;20.980;2023-09-07T08:39:25;101404.38;;;40.86;20.01
17607;BME280;69222;52.242;20.980;2023-09-07T08:41:56;101399.22;;;40.76;19.98
17607;BME280;69222;52.242;20.980;2023-09-07T08:44:29;101399.47;;;40.66;20.47
17607;BME280;69222;52.242;20.980;2023-09-07T08:46:58;101406.00;;;40.49;20.83
17607;BME280;69222;52.242;20.980;2023-09-07T08:49:27;101406.97;;;40.33;20.62
17607;BME280;69222;52.242;20.980;2023-09-07T08:51:58;101401.81;;;39.92;20.89
17607;BME280;69222;52.242;20.980;2023-09-07T08:54:27;101403.53;;;39.37;21.98
17607;BME280;69222;52.242;20.980;2023-09-07T08:56:56;101410.00;;;38.71;22.06
17607;BME280;69222;52.242;20.980;2023-09-07T08:59:24;101396.94;;;38.09;23.30
17607;BME280;69222;52.242;20.980;2023-09-07T09:01:56;101399.06;;;37.55;22.94
17607;BME280;69222;52.242;20.980;2023-09-07T09:04:25;101397.44;;;36.92;23.77
17607;BME280;69222;52.242;20.980;2023-09-07T09:06:56;101403.16;;;36.18;25.66
17607;BME280;69222;52.242;20.980;2023-09-07T09:09:25;101399.06;;;35.49;26.75
17607;BME280;69222;52.242;20.980;2023-09-07T09:11:54;101401.06;;;34.80;27.18
17607;BME280;69222;52.242;20.980;2023-09-07T09:14:22;101403.78;;;34.11;29.03
17607;BME280;69222;52.242;20.980;2023-09-07T09:16:50;101406.81;;;33.56;29.75
17607;BME280;69222;52.242;20.980;2023-09-07T09:19:30;101401.97;;;32.87;30.82
17607;BME280;69222;52.242;20.980;2023-09-07T09:22:01;101399.94;;;32.59;31.52
17607;BME280;69222;52.242;20.980;2023-09-07T09:24:32;101403.22;;;32.40;31.32
17607;BME280;69222;52.242;20.980;2023-09-07T09:27:00;101401.03;;;32.02;32.54
17607;BME280;69222;52.242;20.980;2023-09-07T09:29:28;101398.84;;;31.62;33.09
17607;BME280;69222;52.242;20.980;2023-09-07T09:31:56;101399.19;;;31.35;33.51
17607;BME280;69222;52.242;20.980;2023-09-07T09:34:24;101399.34;;;31.09;34.00
17607;BME280;69222;52.242;20.980;2023-09-07T09:36:52;101403.63;;;30.76;33.49
17607;BME280;69222;52.242;20.980;2023-09-07T09:39:25;101404.34;;;30.30;34.38
17607;BME280;69222;52.242;20.980;2023-09-07T09:41:53;101400.03;;;30.17;34.96
17607;BME280;69222;52.242;20.980;2023-09-07T09:44:23;101397.25;;;30.05;35.33
17607;BME280;69222;52.242;20.980;2023-09-07T09:46:53;101399.22;;;29.91;35.98
17607;BME280;69222;52.242;20.980;2023-09-07T09:49:22;101400.06;;;29.78;36.09
17607;BME280;69222;52.242;20.980;2023-09-07T09:51:52;101397.09;;;29.83;35.95
17607;BME280;69222;52.242;20.980;2023-09-07T09:54:21;101401.88;;;29.78;36.74
17607;BME280;69222;52.242;20.980;2023-09-07T09:56:52;101403.09;;;29.61;36.62
17607;BME280;69222;52.242;20.980;2023-09-07T09:59:20;101391.13;;;29.41;36.95
17607;BME280;69222;52.242;20.980;2023-09-07T10:01:50;101401.78;;;29.28;37.17
17607;BME280;69222;52.242;20.980;2023-09-07T10:04:20;101394.00;;;29.25;37.51
17607;BME280;69222;52.242;20.980;2023-09-07T10:06:53;101395.19;;;29.34;37.54
17607;BME280;69222;52.242;20.980;2023-09-07T10:09:21;101399.47;;;29.62;36.23
17607;BME280;69222;52.242;20.980;2023-09-07T10:11:53;101387.19;;;29.98;35.78
17607;BME280;69222;52.242;20.980;2023-09-07T10:14:21;101386.31;;;30.34;34.84
17607;BME280;69222;52.242;20.980;2023-09-07T10:16:51;101391.31;;;30.87;34.00
17607;BME280;69222;52.242;20.980;2023-09-07T10:19:23;101398.78;;;31.28;32.84
17607;BME280;69222;52.242;20.980;2023-09-07T10:21:55;101394.03;;;31.67;33.01
17607;BME280;69222;52.242;20.980;2023-09-07T10:24:24;101396.22;;;32.39;31.70
17607;BME280;69222;52.242;20.980;2023-09-07T10:26:59;101384.38;;;32.96;30.76
17607;BME280;69222;52.242;20.980;2023-09-07T10:29:27;101388.41;;;32.58;30.44
17607;BME280;69222;52.242;20.980;2023-09-07T10:31:55;101388.31;;;31.83;30.94
17607;BME280;69222;52.242;20.980;2023-09-07T10:34:34;101398.59;;;30.96;32.36
17607;BME280;69222;52.242;20.980;2023-09-07T10:37:03;101397.53;;;30.50;34.16
17607;BME280;69222;52.242;20.980;2023-09-07T10:39:31;101388.03;;;30.83;33.53
17607;BME280;69222;52.242;20.980;2023-09-07T10:42:01;101383.81;;;31.38;32.62
17607;BME280;69222;52.242;20.980;2023-09-07T10:44:29;101384.91;;;31.92;31.75
17607;BME280;69222;52.242;20.980;2023-09-07T10:46:57;101382.09;;;32.16;31.00
17607;BME280;69222;52.242;20.980;2023-09-07T10:49:26;101381.34;;;32.14;30.44
17607;BME280;69222;52.242;20.980;2023-09-07T10:51:53;101388.31;;;31.38;31.28
17607;BME280;69222;52.242;20.980;2023-09-07T10:54:23;101386.50;;;30.44;33.37
17607;BME280;69222;52.242;20.980;2023-09-07T10:56:51;101392.22;;;29.51;35.29
17607;BME280;69222;52.242;20.980;2023-09-07T10:59:20;101381.66;;;28.72;36.70
17607;BME280;69222;52.242;20.980;2023-09-07T11:01:48;101396.72;;;28.17;37.77
17607;BME280;69222;52.242;20.980;2023-09-07T11:04:17;101391.75;;;27.84;38.39
17607;BME280;69222;52.242;20.980;2023-09-07T11:06:47;101388.13;;;27.99;38.94
17607;BME280;69222;52.242;20.980;2023-09-07T11:09:19;101391.31;;;28.18;38.35
17607;BME280;69222;52.242;20.980;2023-09-07T11:11:47;101381.66;;;28.17;37.46
17607;BME280;69222;52.242;20.980;2023-09-07T11:14:15;101379.56;;;28.23;37.93
17607;BME280;69222;52.242;20.980;2023-09-07T11:16:45;101379.97;;;28.58;36.73
17607;BME280;69222;52.242;20.980;2023-09-07T11:19:13;101377.50;;;28.95;36.31
17607;BME280;69222;52.242;20.980;2023-09-07T11:21:46;101372.97;;;29.22;35.72
17607;BME280;69222;52.242;20.980;2023-09-07T11:24:14;101374.78;;;29.47;35.43
17607;BME280;69222;52.242;20.980;2023-09-07T11:26:43;101367.16;;;29.68;35.22
17607;BME280;69222;52.242;20.980;2023-09-07T11:29:13;101367.97;;;29.81;34.82
17607;BME280;69222;52.242;20.980;2023-09-07T11:31:42;101370.06;;;29.89;34.95
17607;BME280;69222;52.242;20.980;2023-09-07T11:34:13;101373.13;;;29.96;33.83
17607;BME280;69222;52.242;20.980;2023-09-07T11:36:42;101367.34;;;29.78;34.53
17607;BME280;69222;52.242;20.980;2023-09-07T11:39:10;101365.22;;;29.45;35.17
17607;BME280;69222;52.242;20.980;2023-09-07T11:41:40;101366.06;;;29.07;35.06
17607;BME280;69222;52.242;20.980;2023-09-07T11:44:09;101369.16;;;28.74;35.83
17607;BME280;69222;52.242;20.980;2023-09-07T11:46:40;101370.91;;;28.48;36.63
17607;BME280;69222;52.242;20.980;2023-09-07T11:49:08;101366.97;;;28.26;37.01
17607;BME280;69222;52.242;20.980;2023-09-07T11:51:38;101371.34;;;28.13;37.64
17607;BME280;69222;52.242;20.980;2023-09-07T11:54:06;101368.16;;;28.08;38.18
17607;BME280;69222;52.242;20.980;2023-09-07T11:56:34;101366.53;;;28.05;38.15
17607;BME280;69222;52.242;20.980;2023-09-07T11:59:06;101371.63;;;28.08;38.12
17607;BME280;69222;52.242;20.980;2023-09-07T12:01:34;101373.78;;;28.16;37.68
17607;BME280;69222;52.242;20.980;2023-09-07T12:04:03;101365.28;;;28.25;37.46
17607;BME280;69222;52.242;20.980;2023-09-07T12:06:32;101360.50;;;28.30;37.44
17607;BME280;69222;52.242;20.980;2023-09-07T12:09:04;101367.63;;;28.30;36.59
17607;BME280;69222;52.242;20.980;2023-09-07T12:11:34;101364.00;;;28.31;36.50
17607;BME280;69222;52.242;20.980;2023-09-07T12:14:03;101359.84;;;28.27;36.31
17607;BME280;69222;52.242;20.980;2023-09-07T12:16:32;101365.41;;;28.36;36.32
17607;BME280;69222;52.242;20.980;2023-09-07T12:19:00;101358.28;;;28.51;36.16
17607;BME280;69222;52.242;20.980;2023-09-07T12:21:28;101360.97;;;28.64;35.48
17607;BME280;69222;52.242;20.980;2023-09-07T12:23:56;101351.66;;;28.71;34.79
17607;BME280;69222;52.242;20.980;2023-09-07T12:26:26;101354.75;;;28.78;34.34
17607;BME280;69222;52.242;20.980;2023-09-07T12:28:54;101342.88;;;28.83;33.75
17607;BME280;69222;52.242;20.980;2023-09-07T12:31:22;101343.22;;;28.92;33.52
17607;BME280;69222;52.242;20.980;2023-09-07T12:33:51;101348.88;;;29.00;33.60
17607;BME280;69222;52.242;20.980;2023-09-07T12:36:19;101336.88;;;29.07;33.67
17607;BME280;69222;52.242;20.980;2023-09-07T12:38:48;101343.34;;;29.03;34.35
17607;BME280;69222;52.242;20.980;2023-09-07T12:41:16;101338.38;;;28.98;34.64
17607;BME280;69222;52.242;20.980;2023-09-07T12:43:46;101338.41;;;28.97;34.79
17607;BME280;69222;52.242;20.980;2023-09-07T12:46:14;101329.72;;;28.95;34.19
17607;BME280;69222;52.242;20.980;2023-09-07T12:48:42;101335.25;;;28.92;34.63